sensor_id;sensor_type;location;lat;lon;timestamp;temperature;humidity
65203;HTU21D;51788;45.124;38.966;2023-05-29T00:00:19;20.29;82.01
65203;HTU21D;51788;45.124;38.966;2023-05-29T00:02:47;20.28;82.04
65203;HTU21D;51788;45.124;38.966;2023-05-29T00:05:13;20.24;82.10
65203;HTU21D;51788;45.124;38.966;2023-05-29T00:07:40;20.21;82.18
65203;HTU21D;51788;45.124;38.966;2023-05-29T00:10:08;20.20;82.23
65203;HTU21D;51788;45.124;38.966;2023-05-29T00:12:35;20.17;82.28
65203;HTU21D;51788;45.124;38.966;2023-05-29T00:15:01;20.16;82.33
65203;HTU21D;51788;45.124;38.966;2023-05-29T00:17:30;20.15;82.42
65203;HTU21D;51788;45.124;38.966;2023-05-29T00:19:58;20.15;82.46
65203;HTU21D;51788;45.124;38.966;2023-05-29T00:22:24;20.16;82.53
65203;HTU21D;51788;45.124;38.966;2023-05-29T00:24:51;20.16;82.55
65203;HTU21D;51788;45.124;38.966;2023-05-29T00:27:18;20.18;82.57
65203;HTU21D;51788;45.124;38.966;2023-05-29T00:29:44;20.19;82.60
65203;HTU21D;51788;45.124;38.966;2023-05-29T00:32:10;20.17;82.64
65203;HTU21D;51788;45.124;38.966;2023-05-29T00:34:36;20.17;82.68
65203;HTU21D;51788;45.124;38.966;2023-05-29T00:37:02;20.15;82.79
65203;HTU21D;51788;45.124;38.966;2023-05-29T00:39:29;20.12;82.89
65203;HTU21D;51788;45.124;38.966;2023-05-29T00:41:54;20.11;83.00
65203;HTU21D;51788;45.124;38.966;2023-05-29T00:44:21;20.14;83.08
65203;HTU21D;51788;45.124;38.966;2023-05-29T00:46:49;20.13;83.14
65203;HTU21D;51788;45.124;38.966;2023-05-29T00:49:16;20.13;83.13
65203;HTU21D;51788;45.124;38.966;2023-05-29T00:51:43;20.15;83.17
65203;HTU21D;51788;45.124;38.966;2023-05-29T00:54:13;20.14;83.26
65203;HTU21D;51788;45.124;38.966;2023-05-29T00:56:40;20.16;83.27
65203;HTU21D;51788;45.124;38.966;2023-05-29T00:59:11;20.11;83.37
65203;HTU21D;51788;45.124;38.966;2023-05-29T01:01:38;20.11;83.45
65203;HTU21D;51788;45.124;38.966;2023-05-29T01:04:06;20.07;83.54
65203;HTU21D;51788;45.124;38.966;2023-05-29T01:06:32;20.03;83.70
65203;HTU21D;51788;45.124;38.966;2023-05-29T01:08:59;20.01;83.87
65203;HTU21D;51788;45.124;38.966;2023-05-29T01:14:23;19.89;84.29
65203;HTU21D;51788;45.124;38.966;2023-05-29T01:17:07;19.86;84.41
65203;HTU21D;51788;45.124;38.966;2023-05-29T01:28:10;19.66;84.93
65203;HTU21D;51788;45.124;38.966;2023-05-29T01:30:39;19.65;85.22
65203;HTU21D;51788;45.124;38.966;2023-05-29T01:33:07;19.60;85.35
65203;HTU21D;51788;45.124;38.966;2023-05-29T01:35:33;19.56;85.40
65203;HTU21D;51788;45.124;38.966;2023-05-29T01:37:59;19.56;85.57
65203;HTU21D;51788;45.124;38.966;2023-05-29T01:40:25;19.54;85.74
65203;HTU21D;51788;45.124;38.966;2023-05-29T01:42:52;19.51;85.74
65203;HTU21D;51788;45.124;38.966;2023-05-29T01:45:19;19.51;85.90
65203;HTU21D;51788;45.124;38.966;2023-05-29T01:47:46;19.50;86.09
65203;HTU21D;51788;45.124;38.966;2023-05-29T01:50:15;19.48;86.18
65203;HTU21D;51788;45.124;38.966;2023-05-29T01:52:41;19.46;86.18
65203;HTU21D;51788;45.124;38.966;2023-05-29T01:55:08;19.48;86.33
65203;HTU21D;51788;45.124;38.966;2023-05-29T01:57:35;19.50;86.41
65203;HTU21D;51788;45.124;38.966;2023-05-29T02:00:03;19.48;86.50
65203;HTU21D;51788;45.124;38.966;2023-05-29T02:02:40;19.45;86.43
65203;HTU21D;51788;45.124;38.966;2023-05-29T02:05:08;19.46;86.60
65203;HTU21D;51788;45.124;38.966;2023-05-29T02:07:35;19.46;86.70
65203;HTU21D;51788;45.124;38.966;2023-05-29T02:10:06;19.45;86.71
65203;HTU21D;51788;45.124;38.966;2023-05-29T02:12:32;19.44;86.82
65203;HTU21D;51788;45.124;38.966;2023-05-29T02:14:59;19.44;86.86
65203;HTU21D;51788;45.124;38.966;2023-05-29T02:17:26;19.48;86.88
65203;HTU21D;51788;45.124;38.966;2023-05-29T02:19:53;19.54;86.74
65203;HTU21D;51788;45.124;38.966;2023-05-29T02:22:19;19.55;86.61
65203;HTU21D;51788;45.124;38.966;2023-05-29T02:24:44;19.60;86.57
65203;HTU21D;51788;45.124;38.966;2023-05-29T02:27:10;19.65;86.45
65203;HTU21D;51788;45.124;38.966;2023-05-29T02:29:36;19.68;86.33
65203;HTU21D;51788;45.124;38.966;2023-05-29T02:32:02;19.72;86.31
65203;HTU21D;51788;45.124;38.966;2023-05-29T02:34:32;19.72;86.35
65203;HTU21D;51788;45.124;38.966;2023-05-29T02:36:58;19.73;86.29
65203;HTU21D;51788;45.124;38.966;2023-05-29T02:39:24;19.76;86.38
65203;HTU21D;51788;45.124;38.966;2023-05-29T02:41:50;19.80;86.29
65203;HTU21D;51788;45.124;38.966;2023-05-29T02:44:16;19.82;86.31
65203;HTU21D;51788;45.124;38.966;2023-05-29T02:46:42;19.83;86.35
65203;HTU21D;51788;45.124;38.966;2023-05-29T02:49:08;19.84;86.38
65203;HTU21D;51788;45.124;38.966;2023-05-29T02:51:34;19.85;86.45
65203;HTU21D;51788;45.124;38.966;2023-05-29T02:54:00;19.84;86.48
65203;HTU21D;51788;45.124;38.966;2023-05-29T02:56:26;19.83;86.54
65203;HTU21D;51788;45.124;38.966;2023-05-29T02:58:52;19.83;86.56
65203;HTU21D;51788;45.124;38.966;2023-05-29T03:01:18;19.85;86.56
65203;HTU21D;51788;45.124;38.966;2023-05-29T03:03:44;19.84;86.61
65203;HTU21D;51788;45.124;38.966;2023-05-29T03:06:11;19.88;86.67
65203;HTU21D;51788;45.124;38.966;2023-05-29T03:08:41;19.98;86.60
65203;HTU21D;51788;45.124;38.966;2023-05-29T03:11:11;20.05;86.37
65203;HTU21D;51788;45.124;38.966;2023-05-29T03:13:38;20.16;86.15
65203;HTU21D;51788;45.124;38.966;2023-05-29T03:16:07;20.22;85.93
65203;HTU21D;51788;45.124;38.966;2023-05-29T03:18:36;20.29;85.80
65203;HTU21D;51788;45.124;38.966;2023-05-29T03:21:02;20.34;85.61
65203;HTU21D;51788;45.124;38.966;2023-05-29T03:23:32;20.41;85.45
65203;HTU21D;51788;45.124;38.966;2023-05-29T03:25:58;20.48;85.24
65203;HTU21D;51788;45.124;38.966;2023-05-29T03:28:24;20.58;84.96
65203;HTU21D;51788;45.124;38.966;2023-05-29T03:30:52;20.68;84.71
65203;HTU21D;51788;45.124;38.966;2023-05-29T03:33:20;20.72;84.55
65203;HTU21D;51788;45.124;38.966;2023-05-29T03:36:06;20.74;84.42
65203;HTU21D;51788;45.124;38.966;2023-05-29T03:38:34;20.77;84.33
65203;HTU21D;51788;45.124;38.966;2023-05-29T03:41:00;20.83;84.14
65203;HTU21D;51788;45.124;38.966;2023-05-29T03:43:26;20.98;83.84
65203;HTU21D;51788;45.124;38.966;2023-05-29T03:45:53;21.13;83.42
65203;HTU21D;51788;45.124;38.966;2023-05-29T03:48:20;21.27;82.87
65203;HTU21D;51788;45.124;38.966;2023-05-29T03:50:49;21.33;82.63
65203;HTU21D;51788;45.124;38.966;2023-05-29T03:53:21;21.38;82.62
65203;HTU21D;51788;45.124;38.966;2023-05-29T03:55:48;21.46;82.26
65203;HTU21D;51788;45.124;38.966;2023-05-29T03:58:14;21.46;82.20
65203;HTU21D;51788;45.124;38.966;2023-05-29T04:00:41;21.49;82.21
65203;HTU21D;51788;45.124;38.966;2023-05-29T04:03:08;21.57;81.98
65203;HTU21D;51788;45.124;38.966;2023-05-29T04:05:34;21.64;81.47
65203;HTU21D;51788;45.124;38.966;2023-05-29T04:08:01;21.68;81.01
65203;HTU21D;51788;45.124;38.966;2023-05-29T04:10:30;21.65;81.12
65203;HTU21D;51788;45.124;38.966;2023-05-29T04:13:00;21.67;81.20
65203;HTU21D;51788;45.124;38.966;2023-05-29T04:15:29;21.66;80.76
65203;HTU21D;51788;45.124;38.966;2023-05-29T04:17:56;21.67;80.80
65203;HTU21D;51788;45.124;38.966;2023-05-29T04:20:22;21.72;80.29
65203;HTU21D;51788;45.124;38.966;2023-05-29T04:22:48;21.72;80.40
65203;HTU21D;51788;45.124;38.966;2023-05-29T04:25:15;21.79;80.31
65203;HTU21D;51788;45.124;38.966;2023-05-29T04:27:42;21.89;80.22
65203;HTU21D;51788;45.124;38.966;2023-05-29T04:30:09;21.98;79.68
65203;HTU21D;51788;45.124;38.966;2023-05-29T04:32:43;21.96;79.49
65203;HTU21D;51788;45.124;38.966;2023-05-29T04:35:09;21.98;79.41
65203;HTU21D;51788;45.124;38.966;2023-05-29T04:37:41;21.99;79.08
65203;HTU21D;51788;45.124;38.966;2023-05-29T04:40:10;21.98;79.44
65203;HTU21D;51788;45.124;38.966;2023-05-29T04:42:37;22.05;79.33
65203;HTU21D;51788;45.124;38.966;2023-05-29T04:45:04;22.04;79.31
65203;HTU21D;51788;45.124;38.966;2023-05-29T04:47:34;22.04;79.42
65203;HTU21D;51788;45.124;38.966;2023-05-29T04:50:02;22.04;79.24
65203;HTU21D;51788;45.124;38.966;2023-05-29T04:52:28;21.99;79.33
65203;HTU21D;51788;45.124;38.966;2023-05-29T04:54:55;22.03;79.30
65203;HTU21D;51788;45.124;38.966;2023-05-29T04:57:22;22.03;79.35
65203;HTU21D;51788;45.124;38.966;2023-05-29T04:59:49;22.05;79.17
65203;HTU21D;51788;45.124;38.966;2023-05-29T05:02:16;22.04;79.24
65203;HTU21D;51788;45.124;38.966;2023-05-29T05:04:42;22.05;79.33
65203;HTU21D;51788;45.124;38.966;2023-05-29T05:07:09;22.06;79.24
65203;HTU21D;51788;45.124;38.966;2023-05-29T05:09:36;22.04;79.37
65203;HTU21D;51788;45.124;38.966;2023-05-29T05:12:03;22.05;79.32
65203;HTU21D;51788;45.124;38.966;2023-05-29T05:14:29;22.10;79.38
65203;HTU21D;51788;45.124;38.966;2023-05-29T05:16:55;22.13;79.28
65203;HTU21D;51788;45.124;38.966;2023-05-29T05:19:21;22.17;79.24
65203;HTU21D;51788;45.124;38.966;2023-05-29T05:21:47;22.21;79.27
65203;HTU21D;51788;45.124;38.966;2023-05-29T05:24:14;22.28;78.98
65203;HTU21D;51788;45.124;38.966;2023-05-29T05:26:41;22.32;78.81
65203;HTU21D;51788;45.124;38.966;2023-05-29T05:29:07;22.40;78.60
65203;HTU21D;51788;45.124;38.966;2023-05-29T05:31:38;22.52;78.34
65203;HTU21D;51788;45.124;38.966;2023-05-29T05:34:04;22.61;77.98
65203;HTU21D;51788;45.124;38.966;2023-05-29T05:36:30;22.67;77.80
65203;HTU21D;51788;45.124;38.966;2023-05-29T05:39:03;22.71;77.17
65203;HTU21D;51788;45.124;38.966;2023-05-29T05:41:31;22.67;76.97
65203;HTU21D;51788;45.124;38.966;2023-05-29T05:43:58;22.64;76.90
65203;HTU21D;51788;45.124;38.966;2023-05-29T05:46:40;22.60;76.94
65203;HTU21D;51788;45.124;38.966;2023-05-29T05:49:07;22.61;76.90
65203;HTU21D;51788;45.124;38.966;2023-05-29T05:51:34;22.60;76.86
65203;HTU21D;51788;45.124;38.966;2023-05-29T05:54:00;22.61;77.00
65203;HTU21D;51788;45.124;38.966;2023-05-29T05:56:27;22.62;76.56
65203;HTU21D;51788;45.124;38.966;2023-05-29T05:58:53;22.54;76.56
65203;HTU21D;51788;45.124;38.966;2023-05-29T06:01:20;22.48;76.68
65203;HTU21D;51788;45.124;38.966;2023-05-29T06:03:47;22.41;76.60
65203;HTU21D;51788;45.124;38.966;2023-05-29T06:06:13;22.34;76.54
65203;HTU21D;51788;45.124;38.966;2023-05-29T06:08:41;22.31;75.71
65203;HTU21D;51788;45.124;38.966;2023-05-29T06:11:09;22.24;75.79
65203;HTU21D;51788;45.124;38.966;2023-05-29T06:13:37;22.17;75.86
65203;HTU21D;51788;45.124;38.966;2023-05-29T06:16:08;22.05;76.16
65203;HTU21D;51788;45.124;38.966;2023-05-29T06:18:35;21.84;77.03
65203;HTU21D;51788;45.124;38.966;2023-05-29T06:21:01;21.72;77.59
65203;HTU21D;51788;45.124;38.966;2023-05-29T06:23:29;21.58;78.04
65203;HTU21D;51788;45.124;38.966;2023-05-29T06:25:55;21.45;78.66
65203;HTU21D;51788;45.124;38.966;2023-05-29T06:28:21;21.33;79.17
65203;HTU21D;51788;45.124;38.966;2023-05-29T06:30:48;21.27;79.52
65203;HTU21D;51788;45.124;38.966;2023-05-29T06:33:14;21.16;80.02
65203;HTU21D;51788;45.124;38.966;2023-05-29T06:35:41;21.08;80.40
65203;HTU21D;51788;45.124;38.966;2023-05-29T06:38:07;21.08;80.77
65203;HTU21D;51788;45.124;38.966;2023-05-29T06:40:33;21.08;80.81
65203;HTU21D;51788;45.124;38.966;2023-05-29T06:43:00;21.06;80.98
65203;HTU21D;51788;45.124;38.966;2023-05-29T06:45:45;21.02;81.14
65203;HTU21D;51788;45.124;38.966;2023-05-29T06:48:11;20.95;81.49
65203;HTU21D;51788;45.124;38.966;2023-05-29T06:50:39;20.83;82.02
65203;HTU21D;51788;45.124;38.966;2023-05-29T06:53:25;20.72;82.52
65203;HTU21D;51788;45.124;38.966;2023-05-29T06:55:53;20.64;82.85
65203;HTU21D;51788;45.124;38.966;2023-05-29T06:58:19;20.63;83.11
65203;HTU21D;51788;45.124;38.966;2023-05-29T07:00:46;20.70;83.52
65203;HTU21D;51788;45.124;38.966;2023-05-29T07:03:32;20.76;83.37
65203;HTU21D;51788;45.124;38.966;2023-05-29T07:05:58;20.84;83.51
65203;HTU21D;51788;45.124;38.966;2023-05-29T07:08:25;20.88;83.47
65203;HTU21D;51788;45.124;38.966;2023-05-29T07:10:52;20.92;83.80
65203;HTU21D;51788;45.124;38.966;2023-05-29T07:13:20;20.98;83.80
65203;HTU21D;51788;45.124;38.966;2023-05-29T07:15:46;21.01;83.72
65203;HTU21D;51788;45.124;38.966;2023-05-29T07:18:13;21.06;83.79
65203;HTU21D;51788;45.124;38.966;2023-05-29T07:20:41;21.11;83.49
65203;HTU21D;51788;45.124;38.966;2023-05-29T07:23:08;21.19;83.42
65203;HTU21D;51788;45.124;38.966;2023-05-29T07:25:34;21.22;83.39
65203;HTU21D;51788;45.124;38.966;2023-05-29T07:28:00;21.28;83.45
65203;HTU21D;51788;45.124;38.966;2023-05-29T07:30:26;21.28;83.37
65203;HTU21D;51788;45.124;38.966;2023-05-29T07:32:53;21.32;83.37
65203;HTU21D;51788;45.124;38.966;2023-05-29T07:35:19;21.33;83.36
65203;HTU21D;51788;45.124;38.966;2023-05-29T07:37:47;21.38;83.36
65203;HTU21D;51788;45.124;38.966;2023-05-29T07:40:17;21.40;83.37
65203;HTU21D;51788;45.124;38.966;2023-05-29T07:42:58;21.43;83.40
65203;HTU21D;51788;45.124;38.966;2023-05-29T07:45:30;21.48;83.34
65203;HTU21D;51788;45.124;38.966;2023-05-29T07:47:56;21.49;83.11
65203;HTU21D;51788;45.124;38.966;2023-05-29T07:50:22;21.54;83.11
65203;HTU21D;51788;45.124;38.966;2023-05-29T07:52:48;21.55;83.04
65203;HTU21D;51788;45.124;38.966;2023-05-29T07:55:14;21.57;83.01
65203;HTU21D;51788;45.124;38.966;2023-05-29T07:57:43;21.59;83.00
65203;HTU21D;51788;45.124;38.966;2023-05-29T08:00:09;21.60;82.97
65203;HTU21D;51788;45.124;38.966;2023-05-29T08:02:45;21.60;82.78
65203;HTU21D;51788;45.124;38.966;2023-05-29T08:05:30;21.57;82.70
65203;HTU21D;51788;45.124;38.966;2023-05-29T08:07:59;21.55;82.61
65203;HTU21D;51788;45.124;38.966;2023-05-29T08:10:26;21.51;82.76
65203;HTU21D;51788;45.124;38.966;2023-05-29T08:12:53;21.49;82.89
65203;HTU21D;51788;45.124;38.966;2023-05-29T08:15:19;21.43;82.98
65203;HTU21D;51788;45.124;38.966;2023-05-29T08:17:46;21.38;83.29
65203;HTU21D;51788;45.124;38.966;2023-05-29T08:20:12;21.37;83.57
65203;HTU21D;51788;45.124;38.966;2023-05-29T08:22:38;21.37;83.56
65203;HTU21D;51788;45.124;38.966;2023-05-29T08:25:04;21.40;83.55
65203;HTU21D;51788;45.124;38.966;2023-05-29T08:27:31;21.43;83.61
65203;HTU21D;51788;45.124;38.966;2023-05-29T08:29:57;21.42;83.78
65203;HTU21D;51788;45.124;38.966;2023-05-29T08:32:23;21.33;83.87
65203;HTU21D;51788;45.124;38.966;2023-05-29T08:34:49;21.14;84.20
65203;HTU21D;51788;45.124;38.966;2023-05-29T08:37:16;21.00;84.65
65203;HTU21D;51788;45.124;38.966;2023-05-29T08:39:43;20.90;84.90
65203;HTU21D;51788;45.124;38.966;2023-05-29T08:42:21;20.86;85.26
65203;HTU21D;51788;45.124;38.966;2023-05-29T08:44:48;20.79;85.51
65203;HTU21D;51788;45.124;38.966;2023-05-29T08:47:17;20.71;85.81
65203;HTU21D;51788;45.124;38.966;2023-05-29T08:49:52;20.65;86.23
65203;HTU21D;51788;45.124;38.966;2023-05-29T08:52:22;20.65;86.30
65203;HTU21D;51788;45.124;38.966;2023-05-29T08:54:48;20.70;86.30
65203;HTU21D;51788;45.124;38.966;2023-05-29T08:57:14;20.75;86.22
65203;HTU21D;51788;45.124;38.966;2023-05-29T08:59:43;20.78;86.02
65203;HTU21D;51788;45.124;38.966;2023-05-29T09:02:10;20.85;86.01
65203;HTU21D;51788;45.124;38.966;2023-05-29T09:04:41;20.93;85.94
65203;HTU21D;51788;45.124;38.966;2023-05-29T09:07:11;21.02;85.70
65203;HTU21D;51788;45.124;38.966;2023-05-29T09:09:38;21.09;85.54
65203;HTU21D;51788;45.124;38.966;2023-05-29T09:12:04;21.16;85.34
65203;HTU21D;51788;45.124;38.966;2023-05-29T09:14:38;21.23;85.17
65203;HTU21D;51788;45.124;38.966;2023-05-29T09:17:06;21.30;84.91
65203;HTU21D;51788;45.124;38.966;2023-05-29T09:19:33;21.40;84.62
65203;HTU21D;51788;45.124;38.966;2023-05-29T09:22:06;21.49;84.45
65203;HTU21D;51788;45.124;38.966;2023-05-29T09:24:34;21.57;84.10
65203;HTU21D;51788;45.124;38.966;2023-05-29T09:27:00;21.65;83.94
65203;HTU21D;51788;45.124;38.966;2023-05-29T09:29:30;21.80;83.76
65203;HTU21D;51788;45.124;38.966;2023-05-29T09:31:56;21.90;83.36
65203;HTU21D;51788;45.124;38.966;2023-05-29T09:34:24;21.88;83.16
65203;HTU21D;51788;45.124;38.966;2023-05-29T09:36:52;21.84;83.15
65203;HTU21D;51788;45.124;38.966;2023-05-29T09:39:18;21.76;83.30
65203;HTU21D;51788;45.124;38.966;2023-05-29T09:41:45;21.66;83.60
65203;HTU21D;51788;45.124;38.966;2023-05-29T09:44:14;21.54;83.81
65203;HTU21D;51788;45.124;38.966;2023-05-29T09:46:41;21.54;83.94
65203;HTU21D;51788;45.124;38.966;2023-05-29T09:49:11;21.52;83.87
65203;HTU21D;51788;45.124;38.966;2023-05-29T09:51:37;21.43;83.89
65203;HTU21D;51788;45.124;38.966;2023-05-29T09:54:18;21.35;84.13
65203;HTU21D;51788;45.124;38.966;2023-05-29T09:56:45;21.31;84.21
65203;HTU21D;51788;45.124;38.966;2023-05-29T09:59:13;21.33;84.28
65203;HTU21D;51788;45.124;38.966;2023-05-29T10:01:43;21.33;84.35
65203;HTU21D;51788;45.124;38.966;2023-05-29T10:04:12;21.33;84.38
65203;HTU21D;51788;45.124;38.966;2023-05-29T10:06:44;21.33;84.48
65203;HTU21D;51788;45.124;38.966;2023-05-29T10:09:16;21.37;84.50
65203;HTU21D;51788;45.124;38.966;2023-05-29T10:11:44;21.45;84.43
65203;HTU21D;51788;45.124;38.966;2023-05-29T10:14:17;21.46;84.35
65203;HTU21D;51788;45.124;38.966;2023-05-29T10:16:46;21.46;84.39
65203;HTU21D;51788;45.124;38.966;2023-05-29T10:19:18;21.48;84.43
65203;HTU21D;51788;45.124;38.966;2023-05-29T10:21:45;21.53;84.32
65203;HTU21D;51788;45.124;38.966;2023-05-29T10:24:13;21.59;84.28
65203;HTU21D;51788;45.124;38.966;2023-05-29T10:26:40;21.65;84.18
65203;HTU21D;51788;45.124;38.966;2023-05-29T10:29:25;21.73;84.13
65203;HTU21D;51788;45.124;38.966;2023-05-29T10:32:05;21.77;84.05
65203;HTU21D;51788;45.124;38.966;2023-05-29T10:34:39;21.78;83.89
65203;HTU21D;51788;45.124;38.966;2023-05-29T10:37:21;21.80;83.88
65203;HTU21D;51788;45.124;38.966;2023-05-29T10:39:51;21.76;83.89
65203;HTU21D;51788;45.124;38.966;2023-05-29T10:45:05;21.78;84.13
65203;HTU21D;51788;45.124;38.966;2023-05-29T10:47:31;21.91;83.83
65203;HTU21D;51788;45.124;38.966;2023-05-29T10:50:00;22.01;83.57
65203;HTU21D;51788;45.124;38.966;2023-05-29T10:52:34;22.19;83.06
65203;HTU21D;51788;45.124;38.966;2023-05-29T10:55:01;22.39;82.67
65203;HTU21D;51788;45.124;38.966;2023-05-29T10:57:30;22.50;82.08
65203;HTU21D;51788;45.124;38.966;2023-05-29T11:00:05;22.64;81.81
65203;HTU21D;51788;45.124;38.966;2023-05-29T11:02:37;22.84;81.42
65203;HTU21D;51788;45.124;38.966;2023-05-29T11:07:57;23.10;80.66
65203;HTU21D;51788;45.124;38.966;2023-05-29T11:11:03;23.24;80.15
65203;HTU21D;51788;45.124;38.966;2023-05-29T11:13:36;23.31;80.01
65203;HTU21D;51788;45.124;38.966;2023-05-29T11:16:11;23.22;80.00
65203;HTU21D;51788;45.124;38.966;2023-05-29T11:18:42;23.08;79.78
65203;HTU21D;51788;45.124;38.966;2023-05-29T11:24:26;22.82;80.41
65203;HTU21D;51788;45.124;38.966;2023-05-29T11:26:55;22.80;80.54
65203;HTU21D;51788;45.124;38.966;2023-05-29T11:29:27;22.77;80.59
65203;HTU21D;51788;45.124;38.966;2023-05-29T11:32:06;22.75;80.72
65203;HTU21D;51788;45.124;38.966;2023-05-29T11:34:38;22.73;80.84
65203;HTU21D;51788;45.124;38.966;2023-05-29T11:37:04;22.68;80.99
65203;HTU21D;51788;45.124;38.966;2023-05-29T11:39:36;22.63;81.04
65203;HTU21D;51788;45.124;38.966;2023-05-29T11:42:02;22.58;81.13
65203;HTU21D;51788;45.124;38.966;2023-05-29T11:44:28;22.54;81.27
65203;HTU21D;51788;45.124;38.966;2023-05-29T11:47:04;22.50;81.26
65203;HTU21D;51788;45.124;38.966;2023-05-29T11:49:32;22.62;81.16
65203;HTU21D;51788;45.124;38.966;2023-05-29T11:52:12;22.86;80.85
65203;HTU21D;51788;45.124;38.966;2023-05-29T11:54:43;23.09;80.20
65203;HTU21D;51788;45.124;38.966;2023-05-29T11:57:22;23.22;79.87
65203;HTU21D;51788;45.124;38.966;2023-05-29T11:59:52;23.22;79.77
65203;HTU21D;51788;45.124;38.966;2023-05-29T12:02:24;23.12;79.82
65203;HTU21D;51788;45.124;38.966;2023-05-29T12:05:03;23.10;80.05
65203;HTU21D;51788;45.124;38.966;2023-05-29T12:07:33;23.11;80.06
65203;HTU21D;51788;45.124;38.966;2023-05-29T12:10:16;22.99;80.14
65203;HTU21D;51788;45.124;38.966;2023-05-29T12:12:50;22.85;80.38
65203;HTU21D;51788;45.124;38.966;2023-05-29T12:15:16;22.75;80.60
65203;HTU21D;51788;45.124;38.966;2023-05-29T12:17:47;22.64;80.94
65203;HTU21D;51788;45.124;38.966;2023-05-29T12:20:14;22.52;81.42
65203;HTU21D;51788;45.124;38.966;2023-05-29T12:22:42;22.37;82.08
65203;HTU21D;51788;45.124;38.966;2023-05-29T12:25:21;22.35;82.46
65203;HTU21D;51788;45.124;38.966;2023-05-29T12:27:48;22.43;82.46
65203;HTU21D;51788;45.124;38.966;2023-05-29T12:32:49;22.71;81.97
65203;HTU21D;51788;45.124;38.966;2023-05-29T12:35:20;22.83;81.72
65203;HTU21D;51788;45.124;38.966;2023-05-29T12:40:22;23.29;80.56
65203;HTU21D;51788;45.124;38.966;2023-05-29T12:42:54;23.44;80.12
65203;HTU21D;51788;45.124;38.966;2023-05-29T12:45:23;23.53;79.74
65203;HTU21D;51788;45.124;38.966;2023-05-29T12:47:54;23.62;79.31
65203;HTU21D;51788;45.124;38.966;2023-05-29T12:53:13;23.81;79.15
65203;HTU21D;51788;45.124;38.966;2023-05-29T12:55:41;23.83;78.75
65203;HTU21D;51788;45.124;38.966;2023-05-29T12:58:09;23.83;78.44
65203;HTU21D;51788;45.124;38.966;2023-05-29T13:00:37;23.83;78.16
65203;HTU21D;51788;45.124;38.966;2023-05-29T13:03:04;23.89;78.00
65203;HTU21D;51788;45.124;38.966;2023-05-29T13:05:32;23.85;77.92
65203;HTU21D;51788;45.124;38.966;2023-05-29T13:07:58;23.69;78.21
65203;HTU21D;51788;45.124;38.966;2023-05-29T13:10:26;23.66;78.47
65203;HTU21D;51788;45.124;38.966;2023-05-29T13:12:54;23.84;78.27
65203;HTU21D;51788;45.124;38.966;2023-05-29T13:15:24;23.85;77.71
65203;HTU21D;51788;45.124;38.966;2023-05-29T13:17:51;23.80;77.87
65203;HTU21D;51788;45.124;38.966;2023-05-29T13:20:17;23.71;78.19
65203;HTU21D;51788;45.124;38.966;2023-05-29T13:22:45;23.64;78.33
65203;HTU21D;51788;45.124;38.966;2023-05-29T13:25:13;23.52;78.75
65203;HTU21D;51788;45.124;38.966;2023-05-29T13:27:43;23.53;79.02
65203;HTU21D;51788;45.124;38.966;2023-05-29T13:30:10;23.61;79.05
65203;HTU21D;51788;45.124;38.966;2023-05-29T13:32:36;23.70;78.85
65203;HTU21D;51788;45.124;38.966;2023-05-29T13:35:02;23.73;78.50
65203;HTU21D;51788;45.124;38.966;2023-05-29T13:37:29;23.71;78.38
65203;HTU21D;51788;45.124;38.966;2023-05-29T13:39:55;23.71;78.50
65203;HTU21D;51788;45.124;38.966;2023-05-29T13:42:21;23.76;78.47
65203;HTU21D;51788;45.124;38.966;2023-05-29T13:44:48;23.83;78.07
65203;HTU21D;51788;45.124;38.966;2023-05-29T13:47:14;23.84;77.85
65203;HTU21D;51788;45.124;38.966;2023-05-29T13:49:40;23.84;77.92
65203;HTU21D;51788;45.124;38.966;2023-05-29T13:52:07;23.83;78.06
65203;HTU21D;51788;45.124;38.966;2023-05-29T13:54:33;23.86;78.17
65203;HTU21D;51788;45.124;38.966;2023-05-29T13:57:02;23.85;78.25
65203;HTU21D;51788;45.124;38.966;2023-05-29T13:59:32;23.83;78.00
65203;HTU21D;51788;45.124;38.966;2023-05-29T14:01:59;23.87;77.86
65203;HTU21D;51788;45.124;38.966;2023-05-29T14:04:26;23.84;77.48
65203;HTU21D;51788;45.124;38.966;2023-05-29T14:06:52;23.84;77.43
65203;HTU21D;51788;45.124;38.966;2023-05-29T14:09:18;23.91;77.36
65203;HTU21D;51788;45.124;38.966;2023-05-29T14:11:55;24.06;76.88
65203;HTU21D;51788;45.124;38.966;2023-05-29T14:14:22;24.08;76.53
65203;HTU21D;51788;45.124;38.966;2023-05-29T14:16:49;24.00;76.76
65203;HTU21D;51788;45.124;38.966;2023-05-29T14:19:15;23.94;77.12
65203;HTU21D;51788;45.124;38.966;2023-05-29T14:21:41;23.87;77.35
65203;HTU21D;51788;45.124;38.966;2023-05-29T14:24:08;23.81;77.54
65203;HTU21D;51788;45.124;38.966;2023-05-29T14:26:34;23.74;77.60
65203;HTU21D;51788;45.124;38.966;2023-05-29T14:29:01;23.69;77.80
65203;HTU21D;51788;45.124;38.966;2023-05-29T14:31:27;23.62;77.91
65203;HTU21D;51788;45.124;38.966;2023-05-29T14:33:53;23.56;78.11
65203;HTU21D;51788;45.124;38.966;2023-05-29T14:36:19;23.57;78.40
65203;HTU21D;51788;45.124;38.966;2023-05-29T14:38:45;23.72;77.89
65203;HTU21D;51788;45.124;38.966;2023-05-29T14:41:13;23.79;77.79
65203;HTU21D;51788;45.124;38.966;2023-05-29T14:43:41;23.84;77.76
65203;HTU21D;51788;45.124;38.966;2023-05-29T14:46:08;23.76;77.78
65203;HTU21D;51788;45.124;38.966;2023-05-29T14:48:34;23.70;77.99
65203;HTU21D;51788;45.124;38.966;2023-05-29T14:51:01;23.62;78.28
65203;HTU21D;51788;45.124;38.966;2023-05-29T14:53:27;23.55;78.54
65203;HTU21D;51788;45.124;38.966;2023-05-29T14:55:53;23.47;78.82
65203;HTU21D;51788;45.124;38.966;2023-05-29T14:58:21;23.43;79.08
65203;HTU21D;51788;45.124;38.966;2023-05-29T15:00:47;23.44;79.27
65203;HTU21D;51788;45.124;38.966;2023-05-29T15:03:14;23.44;79.36
65203;HTU21D;51788;45.124;38.966;2023-05-29T15:05:39;23.45;79.43
65203;HTU21D;51788;45.124;38.966;2023-05-29T15:08:05;23.49;79.54
65203;HTU21D;51788;45.124;38.966;2023-05-29T15:10:31;23.51;79.50
65203;HTU21D;51788;45.124;38.966;2023-05-29T15:12:58;23.52;79.49
65203;HTU21D;51788;45.124;38.966;2023-05-29T15:15:25;23.55;79.53
65203;HTU21D;51788;45.124;38.966;2023-05-29T15:17:52;23.62;79.45
65203;HTU21D;51788;45.124;38.966;2023-05-29T15:20:22;23.69;79.25
65203;HTU21D;51788;45.124;38.966;2023-05-29T15:22:49;23.69;78.99
65203;HTU21D;51788;45.124;38.966;2023-05-29T15:25:16;23.67;78.98
65203;HTU21D;51788;45.124;38.966;2023-05-29T15:27:42;23.58;79.08
65203;HTU21D;51788;45.124;38.966;2023-05-29T15:30:13;23.55;79.24
65203;HTU21D;51788;45.124;38.966;2023-05-29T15:32:40;23.51;79.40
65203;HTU21D;51788;45.124;38.966;2023-05-29T15:35:11;23.49;79.56
65203;HTU21D;51788;45.124;38.966;2023-05-29T15:37:38;23.47;79.58